Sog Xian, China
Current Conditions -  °F | °C
As of 3:50 PM on Friday 31 Oct 2014 (Local Time) from VNKT Reporting Station
Scattered Clouds Scattered Clouds  
Wind Chill: 73°   Ceiling: Unl
Heat Index: 73°   Visibility: 4mi
Dew Point: 52°   Wind: 6mph
Humidity: 47%   Direction: 300°WNW
Pressure: 30.06"   Gusts: NA
Location:  31.88°N, 93.78°E
Report Text: VNKT 310750Z 30005KT 6000 SCT025 23/11 Q1018 NOSIG
Loading
Personal Weather Stations






























Interactive Weather Map
Tropical Storm Tracking
New forecast layout! Learn more

10-Day Weather Forecast

Advertisements
Track Severe Weather on mobile